CheckWX is a tool to help pilots better visualize weather data.  It is not intended as a substitute for an official pre-flight weather briefing.

11:18:05 UTC

KATL TAF
Hartsfield - Jackson Atlanta International Airport
Atlanta, Georgia, USA
KATL 171008Z 1710/1812 03003KT P6SM SKC FM171500 35004KT P6SM SKC FM171700 33006KT P6SM SCT060 FM180000 10004KT P6SM FEW070 FM180500 21004KT P6SM FEW250

Aug-17@
10:00 UTC

Aug-17 @ 10:00 UTC

Aug-17@
15:00 UTC

Aug-17 @ 15:00 UTC

KATL 171008Z 1710/1812 03003KT P6SM SKC
Wind
  • 030° at 3 KTS
Cloud Levels
  • Clear skies

Aug-17@
15:00 UTC

Aug-17 @ 15:00 UTC

Aug-17@
17:00 UTC

Aug-17 @ 17:00 UTC

FM171500 35004KT P6SM SKC

From

From Standard forecast or significant change

Wind
  • 350° at 4 KTS
Cloud Levels
  • Clear skies

Aug-17@
17:00 UTC

Aug-17 @ 17:00 UTC

Aug-18@
00:00 UTC

Aug-18 @ 00:00 UTC

FM171700 33006KT P6SM SCT060

From

From Standard forecast or significant change

Wind
  • 330° at 6 KTS
Cloud Levels
  • Scattered at 6,000' AGL

Aug-18@
00:00 UTC

Aug-18 @ 00:00 UTC

Aug-18@
05:00 UTC

Aug-18 @ 05:00 UTC

FM180000 10004KT P6SM FEW070

From

From Standard forecast or significant change

Wind
  • 100° at 4 KTS
Cloud Levels
  • Few at 7,000' AGL

Aug-18@
05:00 UTC

Aug-18 @ 05:00 UTC

Aug-18@
12:00 UTC

Aug-18 @ 12:00 UTC

FM180500 21004KT P6SM FEW250

From

From Standard forecast or significant change

Wind
  • 210° at 4 KTS
Cloud Levels
  • Few at 25,000' AGL